Flight Track Log - Related Links

Times and Time Zones

All times are in EDT time to prevent confusion due to time zone crossing. See the SWA760 flight status page for this flight to view local times or setup timezone preferences in your user account.

Time Position Orientation Groundspeed Altitude Reporting Facility
EDT Latitude Longitude Course Direction KTS MPH feet Rate Location/Type
05:25PM 36.0761 -115.1683 271° West 162 186 3,100  Level Los Angeles Center
05:26PM 36.0767 -115.2211 271° West 191 220 4,500 1,817 Climbing Los Angeles Center
05:27PM 36.1050 -115.2917 296° West 268 308 6,400 2,229 Climbing Los Angeles Center
05:28PM 36.1506 -115.2875 North 276 318 8,400 2,692 Climbing Los Angeles Center
05:29PM 36.2042 -115.2081 50° Northeast 301 346 11,200 3,290 Climbing Los Angeles Center
05:30PM 36.2747 -115.0931 53° Northeast 343 395 15,200 3,387 Climbing Los Angeles Center
05:31PM 36.3364 -114.9911 53° Northeast 367 422 18,200 2,758 Climbing Los Angeles Center
05:32PM 36.4011 -114.8842 53° Northeast 384 442 20,900 2,544 Climbing Los Angeles Center
05:33PM 36.4683 -114.7736 53° Northeast 398 458 23,500 2,256 Climbing Los Angeles Center
05:34PM 36.5383 -114.6600 52° Northeast 411 473 25,600 2,081 Climbing Los Angeles Center
05:35PM 36.6258 -114.5158 53° Northeast 432 497 27,800 2,032 Climbing Los Angeles Center
05:36PM 36.6992 -114.3922 53° Northeast 443 510 29,800 1,839 Climbing Los Angeles Center
05:37PM 36.7775 -114.2706 51° Northeast 449 517 31,600 1,548 Climbing Los Angeles Center
05:38PM 36.8844 -114.1892 31° Northeast 449 517 33,000 677 Climbing Los Angeles Center
05:39PM 36.9869 -114.1092 32° Northeast 439 505 33,000  Level Los Angeles Center
05:40PM 37.0889 -114.0294 32° Northeast 435 501 33,000  Level Los Angeles Center
05:41PM 37.2114 -113.9331 32° Northeast 431 496 33,000  Level Los Angeles Center
05:42PM 37.3028 -113.8611 32° Northeast 427 491 33,000  Level Salt Lake Center
05:43PM 37.4025 -113.7831 32° Northeast 423 487 33,000  Level Salt Lake Center
05:44PM 37.5000 -113.7036 33° Northeast 419 482 33,000  Level Salt Lake Center
05:45PM 37.5978 -113.6261 32° Northeast 417 480 33,000  Level Salt Lake Center
05:46PM 37.7161 -113.5328 32° Northeast 415 478 33,000  Level Salt Lake Center
05:47PM 37.8056 -113.4628 32° Northeast 394 453 33,000  Level Salt Lake Center
05:48PM 37.8900 -113.3944 33° Northeast 371 427 33,000  Level Salt Lake Center
05:49PM 37.9761 -113.3256 32° Northeast 365 420 33,000  Level Salt Lake Center
05:50PM 38.0617 -113.2581 32° Northeast 362 417 33,000  Level Salt Lake Center
05:51PM 38.1467 -113.1869 33° Northeast 363 418 33,000  Level Salt Lake Center
05:52PM 38.2333 -113.1181 32° Northeast 366 421 33,000  Level Salt Lake Center
05:53PM 38.3181 -113.0486 33° Northeast 363 418 33,000  Level Salt Lake Center
05:54PM 38.4261 -112.9783 27° Northeast 363 418 33,000 -339 Level Salt Lake Center
05:55PM 38.5217 -112.9286 22° Northeast 368 423 32,300 -1,161 Descending Salt Lake Center
05:56PM 38.6158 -112.8775 23° Northeast 368 423 30,600 -1,500 Descending Salt Lake Center
05:58PM 38.7075 -112.8292 22° Northeast 359 413 29,200 -774 Descending Salt Lake Center
05:59PM 38.7939 -112.7819 23° Northeast 341 392 29,000 -97 Descending Salt Lake Center
06:00PM 38.8808 -112.7347 23° Northeast 340 391 29,000  Level Salt Lake Center
06:01PM 38.9853 -112.6786 23° Northeast 339 390 29,000  Level Salt Lake Center
06:02PM 39.0728 -112.6314 23° Northeast 340 391 29,000  Level Salt Lake Center
06:03PM 39.1594 -112.5842 23° Northeast 339 390 29,000  Level Salt Lake Center
06:04PM 39.2408 -112.5397 23° Northeast 344 396 29,000 -677 Level Salt Lake Center
06:05PM 39.3456 -112.4836 23° Northeast 342 394 27,600 -1,161 Descending Salt Lake Center
06:06PM 39.4278 -112.4344 25° Northeast 329 379 26,600 -968 Descending Salt Lake Center
06:07PM 39.5103 -112.3872 24° Northeast 325 374 25,600 -968 Descending Salt Lake Center
06:08PM 39.5933 -112.3400 24° Northeast 325 374 24,600 -968 Descending Salt Lake Center
06:09PM 39.6739 -112.2928 24° Northeast 320 368 23,600 -919 Descending Salt Lake Center
06:10PM 39.7428 -112.2267 36° Northeast 310 357 22,700 -1,016 Descending Salt Lake Center
06:11PM 39.8458 -112.1958 13° North 316 364 21,500 -1,073 Descending Salt Lake Center
06:12PM 39.9231 -112.1478 26° Northeast 309 356 20,500 -662 Descending Salt Lake Center
06:13PM 40.0169 -112.1161 14° North 295 339 20,000 -221 Descending Salt Lake Center
06:14PM 40.0236 -112.2128 275° West 301 346 20,000  Level Salt Lake Center
06:15PM 39.9511 -112.2603 207° Southwest 292 336 20,000  Level Salt Lake Center
06:16PM 39.8769 -112.3003 202° Southwest 290 334 20,000  Level Salt Lake Center
06:17PM 39.8042 -112.3031 182° South 290 334 20,000  Level Salt Lake Center
06:18PM 39.8144 -112.2017 82° East 274 315 20,000  Level Salt Lake Center
06:19PM 39.8872 -112.1644 21° North 281 323 20,000  Level Salt Lake Center
06:20PM 39.9603 -112.1586 North 290 334 20,000  Level Salt Lake Center
06:21PM 39.9758 -112.2553 282° West 296 341 20,000 -537 Level Salt Lake Center
06:22PM 39.9072 -112.2772 194° South 281 323 18,900 -1,113 Descending Salt Lake Center
06:24PM 39.8928 -112.1892 102° East 281 323 17,700 -1,645 Descending Salt Lake Center
06:25PM 39.9681 -112.1206 35° Northeast 279 321 15,500 -1,548 Descending Salt Lake Center
06:26PM 40.0464 -112.0722 25° Northeast 308 354 14,500 -1,403 Descending Salt Lake Center
06:27PM 40.1294 -112.0242 24° Northeast 325 374 12,600 -1,887 Descending Salt Lake Center
06:28PM 40.2264 -112.0178 North 319 367 10,600 -1,345 Descending Salt Lake Center
06:29PM 40.3031 -112.0031 North 314 361 10,000 -293 Descending Salt Lake Center
06:30PM 40.3881 -111.9847 North 305 351 10,000 -275 Level Salt Lake Center
06:31PM 40.4661 -111.9742 North 284 327 9,400 -857 Descending Salt Lake Center
06:31PM 40.4931 -111.9728 North 265 305 8,900 -774 Descending Salt Lake Center
06:32PM 40.5508 -111.9678 North 256 295 8,600 -881 Descending Salt Lake Center
06:33PM 40.6189 -111.9772 354° North 248 285 7,300 -1,077 Descending Salt Lake Center
06:34PM 40.6767 -111.9867 353° North 219 252 6,500 -976 Descending Salt Lake Center
06:35PM 40.7242 -111.9889 358° North 162 186 5,300 -1,143 Descending Salt Lake Center
06:35PM 40.7364 -111.9947 340° North 151 174 4,900 -774 Descending Salt Lake Center
06:36PM 40.7617 -111.9936 North 138 159 4,500 -522 Descending Salt Lake Center
06:38PM 40.7833 -111.9667 North  Level FlightAware Approximate

Login

Don't have an account? Register now (free) for customized features, flight alerts, and more!